sensor_id;sensor_type;location;lat;lon;timestamp;P1;durP1;ratioP1;P2;durP2;ratioP2
75071;SDS011;63651;55.728;38.022;2022-10-13T00:01:26;2.05;;;1.60;;
75071;SDS011;63651;55.728;38.022;2022-10-13T00:06:26;2.38;;;1.35;;
75071;SDS011;63651;55.728;38.022;2022-10-13T00:11:28;2.47;;;1.70;;
75071;SDS011;63651;55.728;38.022;2022-10-13T00:16:29;2.95;;;1.70;;
75071;SDS011;63651;55.728;38.022;2022-10-13T00:21:30;2.30;;;1.65;;
75071;SDS011;63651;55.728;38.022;2022-10-13T00:26:30;2.63;;;1.80;;
75071;SDS011;63651;55.728;38.022;2022-10-13T00:31:31;2.60;;;1.58;;
75071;SDS011;63651;55.728;38.022;2022-10-13T00:36:32;2.63;;;1.10;;
75071;SDS011;63651;55.728;38.022;2022-10-13T00:41:33;2.97;;;1.70;;
75071;SDS011;63651;55.728;38.022;2022-10-13T00:46:34;2.80;;;1.55;;
75071;SDS011;63651;55.728;38.022;2022-10-13T00:51:38;2.75;;;1.70;;
75071;SDS011;63651;55.728;38.022;2022-10-13T00:56:39;2.15;;;1.83;;
75071;SDS011;63651;55.728;38.022;2022-10-13T01:01:42;3.60;;;1.40;;
75071;SDS011;63651;55.728;38.022;2022-10-13T01:06:42;2.63;;;1.40;;
75071;SDS011;63651;55.728;38.022;2022-10-13T01:11:53;3.28;;;1.48;;
75071;SDS011;63651;55.728;38.022;2022-10-13T01:17:00;1.30;;;1.08;;
75071;SDS011;63651;55.728;38.022;2022-10-13T01:37:21;2.75;;;1.40;;
75071;SDS011;63651;55.728;38.022;2022-10-13T01:42:31;2.88;;;1.25;;
75071;SDS011;63651;55.728;38.022;2022-10-13T01:47:33;2.33;;;1.15;;
75071;SDS011;63651;55.728;38.022;2022-10-13T01:52:36;1.67;;;1.10;;
75071;SDS011;63651;55.728;38.022;2022-10-13T01:57:41;1.80;;;1.30;;
75071;SDS011;63651;55.728;38.022;2022-10-13T02:08:18;1.77;;;1.65;;
75071;SDS011;63651;55.728;38.022;2022-10-13T02:13:23;1.85;;;1.75;;
75071;SDS011;63651;55.728;38.022;2022-10-13T02:18:26;1.75;;;1.42;;
75071;SDS011;63651;55.728;38.022;2022-10-13T02:23:28;2.65;;;1.33;;
75071;SDS011;63651;55.728;38.022;2022-10-13T02:28:29;3.10;;;1.27;;
75071;SDS011;63651;55.728;38.022;2022-10-13T02:33:30;2.38;;;1.40;;
75071;SDS011;63651;55.728;38.022;2022-10-13T02:38:30;1.83;;;1.02;;
75071;SDS011;63651;55.728;38.022;2022-10-13T02:43:31;3.35;;;1.60;;
75071;SDS011;63651;55.728;38.022;2022-10-13T02:48:33;2.15;;;1.83;;
75071;SDS011;63651;55.728;38.022;2022-10-13T02:53:33;2.17;;;1.90;;
75071;SDS011;63651;55.728;38.022;2022-10-13T02:58:35;1.95;;;1.70;;
75071;SDS011;63651;55.728;38.022;2022-10-13T03:03:35;2.90;;;1.77;;
75071;SDS011;63651;55.728;38.022;2022-10-13T03:08:36;2.38;;;1.60;;
75071;SDS011;63651;55.728;38.022;2022-10-13T03:13:37;4.25;;;1.83;;
75071;SDS011;63651;55.728;38.022;2022-10-13T03:18:38;1.83;;;1.60;;
75071;SDS011;63651;55.728;38.022;2022-10-13T03:23:38;2.88;;;1.85;;
75071;SDS011;63651;55.728;38.022;2022-10-13T03:28:39;1.70;;;1.50;;
75071;SDS011;63651;55.728;38.022;2022-10-13T03:33:40;1.88;;;1.40;;
75071;SDS011;63651;55.728;38.022;2022-10-13T03:38:41;3.00;;;1.80;;
75071;SDS011;63651;55.728;38.022;2022-10-13T03:43:42;3.13;;;1.60;;
75071;SDS011;63651;55.728;38.022;2022-10-13T03:48:43;2.10;;;1.85;;
75071;SDS011;63651;55.728;38.022;2022-10-13T03:53:44;3.47;;;1.40;;
75071;SDS011;63651;55.728;38.022;2022-10-13T03:58:45;2.20;;;1.77;;
75071;SDS011;63651;55.728;38.022;2022-10-13T04:03:46;2.55;;;1.50;;
75071;SDS011;63651;55.728;38.022;2022-10-13T04:08:47;1.98;;;1.77;;
75071;SDS011;63651;55.728;38.022;2022-10-13T04:13:48;2.05;;;1.48;;
75071;SDS011;63651;55.728;38.022;2022-10-13T04:19:02;1.67;;;1.30;;
75071;SDS011;63651;55.728;38.022;2022-10-13T04:24:03;2.03;;;1.25;;
75071;SDS011;63651;55.728;38.022;2022-10-13T04:29:05;1.52;;;1.33;;
75071;SDS011;63651;55.728;38.022;2022-10-13T04:34:05;2.35;;;1.67;;
75071;SDS011;63651;55.728;38.022;2022-10-13T04:39:07;3.72;;;1.52;;
75071;SDS011;63651;55.728;38.022;2022-10-13T04:44:07;1.83;;;1.42;;
75071;SDS011;63651;55.728;38.022;2022-10-13T04:49:08;2.22;;;1.60;;
75071;SDS011;63651;55.728;38.022;2022-10-13T04:54:09;2.20;;;1.70;;
75071;SDS011;63651;55.728;38.022;2022-10-13T04:59:10;2.05;;;1.50;;
75071;SDS011;63651;55.728;38.022;2022-10-13T05:04:11;1.95;;;1.30;;
75071;SDS011;63651;55.728;38.022;2022-10-13T05:09:14;1.88;;;1.40;;
75071;SDS011;63651;55.728;38.022;2022-10-13T05:14:15;2.22;;;1.60;;
75071;SDS011;63651;55.728;38.022;2022-10-13T05:19:16;2.47;;;1.63;;
75071;SDS011;63651;55.728;38.022;2022-10-13T05:24:17;5.00;;;1.85;;
75071;SDS011;63651;55.728;38.022;2022-10-13T05:29:20;3.25;;;1.55;;
75071;SDS011;63651;55.728;38.022;2022-10-13T05:34:20;2.67;;;1.90;;
75071;SDS011;63651;55.728;38.022;2022-10-13T05:39:21;3.22;;;1.77;;
75071;SDS011;63651;55.728;38.022;2022-10-13T05:44:22;2.85;;;2.08;;
75071;SDS011;63651;55.728;38.022;2022-10-13T05:49:24;3.55;;;2.00;;
75071;SDS011;63651;55.728;38.022;2022-10-13T05:54:33;2.35;;;2.05;;
75071;SDS011;63651;55.728;38.022;2022-10-13T05:59:37;2.30;;;1.70;;
75071;SDS011;63651;55.728;38.022;2022-10-13T06:04:43;2.90;;;2.10;;
75071;SDS011;63651;55.728;38.022;2022-10-13T06:09:45;3.88;;;2.42;;
75071;SDS011;63651;55.728;38.022;2022-10-13T06:14:46;3.03;;;2.05;;
75071;SDS011;63651;55.728;38.022;2022-10-13T06:19:46;3.08;;;2.08;;
75071;SDS011;63651;55.728;38.022;2022-10-13T06:24:47;4.65;;;2.35;;
75071;SDS011;63651;55.728;38.022;2022-10-13T06:29:48;3.80;;;2.17;;
75071;SDS011;63651;55.728;38.022;2022-10-13T06:34:48;3.15;;;1.80;;
75071;SDS011;63651;55.728;38.022;2022-10-13T06:39:49;3.80;;;2.30;;
75071;SDS011;63651;55.728;38.022;2022-10-13T06:44:50;3.90;;;2.42;;
75071;SDS011;63651;55.728;38.022;2022-10-13T06:49:51;4.13;;;2.67;;
75071;SDS011;63651;55.728;38.022;2022-10-13T06:54:51;3.40;;;2.42;;
75071;SDS011;63651;55.728;38.022;2022-10-13T06:59:52;4.32;;;2.53;;
75071;SDS011;63651;55.728;38.022;2022-10-13T07:04:53;5.05;;;2.53;;
75071;SDS011;63651;55.728;38.022;2022-10-13T07:09:53;3.40;;;2.90;;
75071;SDS011;63651;55.728;38.022;2022-10-13T07:14:54;4.40;;;2.80;;
75071;SDS011;63651;55.728;38.022;2022-10-13T07:19:54;3.95;;;3.47;;
75071;SDS011;63651;55.728;38.022;2022-10-13T07:24:55;4.32;;;3.30;;
75071;SDS011;63651;55.728;38.022;2022-10-13T07:29:56;5.07;;;2.95;;
75071;SDS011;63651;55.728;38.022;2022-10-13T07:34:56;7.97;;;3.17;;
75071;SDS011;63651;55.728;38.022;2022-10-13T07:39:57;3.67;;;2.88;;
75071;SDS011;63651;55.728;38.022;2022-10-13T07:44:59;6.35;;;3.95;;
75071;SDS011;63651;55.728;38.022;2022-10-13T07:50:00;5.03;;;3.13;;
75071;SDS011;63651;55.728;38.022;2022-10-13T07:55:01;5.03;;;3.40;;
75071;SDS011;63651;55.728;38.022;2022-10-13T08:00:02;5.95;;;4.53;;
75071;SDS011;63651;55.728;38.022;2022-10-13T08:05:03;8.38;;;4.10;;
75071;SDS011;63651;55.728;38.022;2022-10-13T08:10:04;5.43;;;3.78;;
75071;SDS011;63651;55.728;38.022;2022-10-13T08:15:05;5.50;;;4.00;;
75071;SDS011;63651;55.728;38.022;2022-10-13T08:20:06;7.85;;;4.32;;
75071;SDS011;63651;55.728;38.022;2022-10-13T08:25:07;5.43;;;3.90;;
75071;SDS011;63651;55.728;38.022;2022-10-13T08:30:08;4.45;;;3.42;;
75071;SDS011;63651;55.728;38.022;2022-10-13T08:35:09;4.43;;;3.30;;
75071;SDS011;63651;55.728;38.022;2022-10-13T08:40:12;6.50;;;3.85;;
75071;SDS011;63651;55.728;38.022;2022-10-13T08:45:17;6.65;;;4.15;;
75071;SDS011;63651;55.728;38.022;2022-10-13T08:50:22;4.60;;;3.22;;
75071;SDS011;63651;55.728;38.022;2022-10-13T08:55:28;4.70;;;3.58;;
75071;SDS011;63651;55.728;38.022;2022-10-13T09:00:31;3.90;;;3.13;;
75071;SDS011;63651;55.728;38.022;2022-10-13T09:05:42;5.47;;;3.10;;
75071;SDS011;63651;55.728;38.022;2022-10-13T09:10:48;5.38;;;3.50;;
75071;SDS011;63651;55.728;38.022;2022-10-13T09:15:49;4.38;;;3.22;;
75071;SDS011;63651;55.728;38.022;2022-10-13T09:20:50;4.65;;;3.25;;
75071;SDS011;63651;55.728;38.022;2022-10-13T09:25:51;4.68;;;3.17;;
75071;SDS011;63651;55.728;38.022;2022-10-13T09:30:59;4.57;;;3.35;;
75071;SDS011;63651;55.728;38.022;2022-10-13T09:46:17;6.65;;;3.97;;
75071;SDS011;63651;55.728;38.022;2022-10-13T09:52:01;5.15;;;4.05;;
75071;SDS011;63651;55.728;38.022;2022-10-13T09:56:45;4.25;;;3.78;;
75071;SDS011;63651;55.728;38.022;2022-10-13T10:01:48;5.78;;;4.80;;
75071;SDS011;63651;55.728;38.022;2022-10-13T10:06:50;5.05;;;4.03;;
75071;SDS011;63651;55.728;38.022;2022-10-13T10:11:51;4.70;;;3.45;;
75071;SDS011;63651;55.728;38.022;2022-10-13T10:16:56;5.10;;;3.55;;
75071;SDS011;63651;55.728;38.022;2022-10-13T10:48:25;4.15;;;3.85;;
75071;SDS011;63651;55.728;38.022;2022-10-13T10:58:48;4.70;;;3.15;;
75071;SDS011;63651;55.728;38.022;2022-10-13T11:08:51;3.97;;;3.08;;
75071;SDS011;63651;55.728;38.022;2022-10-13T11:13:55;3.80;;;2.60;;
75071;SDS011;63651;55.728;38.022;2022-10-13T11:18:57;4.93;;;2.92;;
75071;SDS011;63651;55.728;38.022;2022-10-13T11:24:07;3.00;;;2.75;;
75071;SDS011;63651;55.728;38.022;2022-10-13T11:29:49;3.75;;;3.17;;
75071;SDS011;63651;55.728;38.022;2022-10-13T11:40:22;3.30;;;3.00;;
75071;SDS011;63651;55.728;38.022;2022-10-13T11:45:23;3.20;;;2.90;;
75071;SDS011;63651;55.728;38.022;2022-10-13T11:50:33;4.68;;;3.10;;
75071;SDS011;63651;55.728;38.022;2022-10-13T12:06:03;3.40;;;2.80;;
75071;SDS011;63651;55.728;38.022;2022-10-13T12:11:04;2.60;;;2.40;;
75071;SDS011;63651;55.728;38.022;2022-10-13T12:16:10;2.75;;;2.53;;
75071;SDS011;63651;55.728;38.022;2022-10-13T12:26:20;4.50;;;3.08;;
75071;SDS011;63651;55.728;38.022;2022-10-13T12:31:23;4.05;;;2.83;;
75071;SDS011;63651;55.728;38.022;2022-10-13T12:36:25;4.00;;;3.20;;
75071;SDS011;63651;55.728;38.022;2022-10-13T12:41:30;4.68;;;2.53;;
75071;SDS011;63651;55.728;38.022;2022-10-13T12:46:36;3.58;;;2.65;;
75071;SDS011;63651;55.728;38.022;2022-10-13T12:51:36;3.38;;;2.40;;
75071;SDS011;63651;55.728;38.022;2022-10-13T12:56:40;5.40;;;2.38;;
75071;SDS011;63651;55.728;38.022;2022-10-13T13:01:41;3.72;;;2.10;;
75071;SDS011;63651;55.728;38.022;2022-10-13T13:17:24;3.80;;;1.80;;
75071;SDS011;63651;55.728;38.022;2022-10-13T13:22:25;2.00;;;1.80;;
75071;SDS011;63651;55.728;38.022;2022-10-13T13:27:26;3.05;;;2.15;;
75071;SDS011;63651;55.728;38.022;2022-10-13T13:32:28;4.20;;;2.03;;
75071;SDS011;63651;55.728;38.022;2022-10-13T13:37:34;3.00;;;2.00;;
75071;SDS011;63651;55.728;38.022;2022-10-13T13:42:36;3.15;;;2.05;;
75071;SDS011;63651;55.728;38.022;2022-10-13T13:47:36;2.92;;;1.98;;
75071;SDS011;63651;55.728;38.022;2022-10-13T13:52:37;4.00;;;2.25;;
75071;SDS011;63651;55.728;38.022;2022-10-13T13:57:38;2.95;;;2.15;;
75071;SDS011;63651;55.728;38.022;2022-10-13T14:02:39;3.95;;;2.60;;
75071;SDS011;63651;55.728;38.022;2022-10-13T14:07:40;5.32;;;2.58;;
75071;SDS011;63651;55.728;38.022;2022-10-13T14:12:40;4.15;;;2.30;;
75071;SDS011;63651;55.728;38.022;2022-10-13T14:17:41;4.32;;;2.58;;
75071;SDS011;63651;55.728;38.022;2022-10-13T14:22:42;4.30;;;2.63;;
75071;SDS011;63651;55.728;38.022;2022-10-13T14:27:43;5.15;;;3.17;;
75071;SDS011;63651;55.728;38.022;2022-10-13T14:32:45;4.60;;;2.63;;
75071;SDS011;63651;55.728;38.022;2022-10-13T14:37:45;3.83;;;2.65;;
75071;SDS011;63651;55.728;38.022;2022-10-13T14:42:46;4.07;;;2.83;;
75071;SDS011;63651;55.728;38.022;2022-10-13T14:47:47;4.82;;;2.90;;
75071;SDS011;63651;55.728;38.022;2022-10-13T14:52:47;4.38;;;3.50;;
75071;SDS011;63651;55.728;38.022;2022-10-13T14:57:48;4.40;;;4.00;;
75071;SDS011;63651;55.728;38.022;2022-10-13T15:02:49;4.47;;;3.75;;
75071;SDS011;63651;55.728;38.022;2022-10-13T15:07:49;4.97;;;4.03;;
75071;SDS011;63651;55.728;38.022;2022-10-13T15:12:50;4.40;;;3.63;;
75071;SDS011;63651;55.728;38.022;2022-10-13T15:17:51;4.35;;;3.67;;
75071;SDS011;63651;55.728;38.022;2022-10-13T15:22:52;3.65;;;3.33;;
75071;SDS011;63651;55.728;38.022;2022-10-13T15:27:53;3.35;;;2.85;;
75071;SDS011;63651;55.728;38.022;2022-10-13T15:32:54;4.15;;;3.13;;
75071;SDS011;63651;55.728;38.022;2022-10-13T15:37:55;3.72;;;3.08;;
75071;SDS011;63651;55.728;38.022;2022-10-13T15:42:55;5.47;;;3.40;;
75071;SDS011;63651;55.728;38.022;2022-10-13T15:47:56;4.90;;;4.03;;
75071;SDS011;63651;55.728;38.022;2022-10-13T15:52:57;5.97;;;4.47;;
75071;SDS011;63651;55.728;38.022;2022-10-13T15:57:58;5.07;;;2.72;;
75071;SDS011;63651;55.728;38.022;2022-10-13T16:02:59;4.50;;;3.40;;
75071;SDS011;63651;55.728;38.022;2022-10-13T16:08:00;5.32;;;3.83;;
75071;SDS011;63651;55.728;38.022;2022-10-13T16:13:00;5.72;;;3.67;;
75071;SDS011;63651;55.728;38.022;2022-10-13T16:18:01;5.07;;;3.60;;
75071;SDS011;63651;55.728;38.022;2022-10-13T16:23:02;3.65;;;3.13;;
75071;SDS011;63651;55.728;38.022;2022-10-13T16:28:03;5.28;;;3.22;;
75071;SDS011;63651;55.728;38.022;2022-10-13T16:33:03;4.72;;;3.28;;
75071;SDS011;63651;55.728;38.022;2022-10-13T16:38:04;5.00;;;3.55;;
75071;SDS011;63651;55.728;38.022;2022-10-13T16:43:05;4.00;;;3.60;;
75071;SDS011;63651;55.728;38.022;2022-10-13T16:48:06;5.10;;;3.50;;
75071;SDS011;63651;55.728;38.022;2022-10-13T16:53:07;5.75;;;3.47;;
75071;SDS011;63651;55.728;38.022;2022-10-13T16:58:08;5.40;;;3.65;;
75071;SDS011;63651;55.728;38.022;2022-10-13T17:03:08;6.18;;;3.42;;
75071;SDS011;63651;55.728;38.022;2022-10-13T17:08:09;6.22;;;3.92;;
75071;SDS011;63651;55.728;38.022;2022-10-13T17:13:10;5.88;;;4.10;;
75071;SDS011;63651;55.728;38.022;2022-10-13T17:18:10;5.07;;;2.83;;
75071;SDS011;63651;55.728;38.022;2022-10-13T17:23:11;4.57;;;2.55;;
75071;SDS011;63651;55.728;38.022;2022-10-13T17:28:12;6.22;;;2.85;;
75071;SDS011;63651;55.728;38.022;2022-10-13T17:33:13;4.10;;;2.65;;
75071;SDS011;63651;55.728;38.022;2022-10-13T17:38:14;4.47;;;3.28;;
75071;SDS011;63651;55.728;38.022;2022-10-13T17:43:15;3.72;;;3.15;;
75071;SDS011;63651;55.728;38.022;2022-10-13T17:48:16;3.78;;;3.15;;
75071;SDS011;63651;55.728;38.022;2022-10-13T17:53:16;4.18;;;3.55;;
75071;SDS011;63651;55.728;38.022;2022-10-13T17:58:17;3.72;;;2.80;;
75071;SDS011;63651;55.728;38.022;2022-10-13T18:03:18;6.15;;;3.00;;
75071;SDS011;63651;55.728;38.022;2022-10-13T18:08:19;5.18;;;3.10;;
75071;SDS011;63651;55.728;38.022;2022-10-13T18:13:20;4.22;;;3.25;;
75071;SDS011;63651;55.728;38.022;2022-10-13T18:18:21;3.78;;;3.22;;
75071;SDS011;63651;55.728;38.022;2022-10-13T18:23:22;4.65;;;3.30;;
75071;SDS011;63651;55.728;38.022;2022-10-13T18:28:23;4.80;;;3.10;;
75071;SDS011;63651;55.728;38.022;2022-10-13T18:33:23;4.68;;;3.25;;
75071;SDS011;63651;55.728;38.022;2022-10-13T18:38:24;6.13;;;3.72;;
75071;SDS011;63651;55.728;38.022;2022-10-13T18:43:25;4.85;;;3.70;;
75071;SDS011;63651;55.728;38.022;2022-10-13T18:48:26;4.18;;;3.60;;
75071;SDS011;63651;55.728;38.022;2022-10-13T18:53:27;6.07;;;4.13;;
75071;SDS011;63651;55.728;38.022;2022-10-13T18:58:28;7.18;;;3.53;;
75071;SDS011;63651;55.728;38.022;2022-10-13T19:03:29;5.28;;;3.63;;
75071;SDS011;63651;55.728;38.022;2022-10-13T19:08:30;5.35;;;3.55;;
75071;SDS011;63651;55.728;38.022;2022-10-13T19:13:31;7.47;;;4.20;;
75071;SDS011;63651;55.728;38.022;2022-10-13T19:18:32;9.35;;;5.38;;
75071;SDS011;63651;55.728;38.022;2022-10-13T19:23:33;9.07;;;6.05;;
75071;SDS011;63651;55.728;38.022;2022-10-13T19:28:34;6.97;;;5.10;;
75071;SDS011;63651;55.728;38.022;2022-10-13T19:33:34;6.10;;;5.18;;
75071;SDS011;63651;55.728;38.022;2022-10-13T19:38:35;6.55;;;4.65;;
75071;SDS011;63651;55.728;38.022;2022-10-13T19:43:36;8.00;;;5.55;;
75071;SDS011;63651;55.728;38.022;2022-10-13T19:48:37;10.43;;;6.22;;
75071;SDS011;63651;55.728;38.022;2022-10-13T19:53:38;6.93;;;5.20;;
75071;SDS011;63651;55.728;38.022;2022-10-13T19:58:39;6.95;;;5.15;;
75071;SDS011;63651;55.728;38.022;2022-10-13T20:03:40;5.88;;;4.15;;
75071;SDS011;63651;55.728;38.022;2022-10-13T20:08:41;6.63;;;5.28;;
75071;SDS011;63651;55.728;38.022;2022-10-13T20:13:42;5.88;;;4.75;;
75071;SDS011;63651;55.728;38.022;2022-10-13T20:18:44;6.90;;;5.28;;
75071;SDS011;63651;55.728;38.022;2022-10-13T20:23:45;5.60;;;4.93;;
75071;SDS011;63651;55.728;38.022;2022-10-13T20:28:46;5.13;;;4.55;;
75071;SDS011;63651;55.728;38.022;2022-10-13T20:33:47;6.82;;;4.25;;
75071;SDS011;63651;55.728;38.022;2022-10-13T20:38:52;5.40;;;4.78;;
75071;SDS011;63651;55.728;38.022;2022-10-13T20:43:53;7.80;;;4.63;;
75071;SDS011;63651;55.728;38.022;2022-10-13T20:48:54;6.22;;;4.88;;
75071;SDS011;63651;55.728;38.022;2022-10-13T20:53:55;5.72;;;4.95;;
75071;SDS011;63651;55.728;38.022;2022-10-13T20:59:00;6.43;;;4.75;;
75071;SDS011;63651;55.728;38.022;2022-10-13T21:04:01;6.60;;;5.03;;
75071;SDS011;63651;55.728;38.022;2022-10-13T21:09:03;7.00;;;5.07;;
75071;SDS011;63651;55.728;38.022;2022-10-13T21:14:05;8.13;;;4.78;;
75071;SDS011;63651;55.728;38.022;2022-10-13T21:19:07;6.35;;;4.60;;
75071;SDS011;63651;55.728;38.022;2022-10-13T21:24:08;5.07;;;4.38;;
75071;SDS011;63651;55.728;38.022;2022-10-13T21:29:09;4.97;;;4.47;;
75071;SDS011;63651;55.728;38.022;2022-10-13T21:34:10;5.35;;;4.78;;
75071;SDS011;63651;55.728;38.022;2022-10-13T21:39:11;7.50;;;4.93;;
75071;SDS011;63651;55.728;38.022;2022-10-13T21:44:12;5.70;;;4.68;;
75071;SDS011;63651;55.728;38.022;2022-10-13T21:49:14;7.70;;;4.88;;
75071;SDS011;63651;55.728;38.022;2022-10-13T21:54:14;4.93;;;4.35;;
75071;SDS011;63651;55.728;38.022;2022-10-13T21:59:15;6.57;;;4.18;;
75071;SDS011;63651;55.728;38.022;2022-10-13T22:04:16;6.60;;;4.72;;
75071;SDS011;63651;55.728;38.022;2022-10-13T22:09:16;5.05;;;4.55;;
75071;SDS011;63651;55.728;38.022;2022-10-13T22:14:17;6.53;;;4.15;;
75071;SDS011;63651;55.728;38.022;2022-10-13T22:19:18;6.43;;;4.00;;
75071;SDS011;63651;55.728;38.022;2022-10-13T22:24:21;5.95;;;4.00;;
75071;SDS011;63651;55.728;38.022;2022-10-13T22:29:22;4.68;;;3.92;;
75071;SDS011;63651;55.728;38.022;2022-10-13T22:34:23;5.15;;;3.78;;
75071;SDS011;63651;55.728;38.022;2022-10-13T22:39:24;6.10;;;4.00;;
75071;SDS011;63651;55.728;38.022;2022-10-13T22:44:25;5.65;;;4.10;;
75071;SDS011;63651;55.728;38.022;2022-10-13T22:49:25;5.03;;;3.85;;
75071;SDS011;63651;55.728;38.022;2022-10-13T22:54:26;4.50;;;3.92;;
75071;SDS011;63651;55.728;38.022;2022-10-13T22:59:27;4.63;;;3.95;;
75071;SDS011;63651;55.728;38.022;2022-10-13T23:04:28;4.90;;;3.95;;
75071;SDS011;63651;55.728;38.022;2022-10-13T23:09:28;4.40;;;3.92;;
75071;SDS011;63651;55.728;38.022;2022-10-13T23:14:30;5.45;;;3.85;;
75071;SDS011;63651;55.728;38.022;2022-10-13T23:19:31;4.22;;;3.60;;
75071;SDS011;63651;55.728;38.022;2022-10-13T23:24:31;6.88;;;4.07;;
75071;SDS011;63651;55.728;38.022;2022-10-13T23:29:32;4.15;;;3.20;;
75071;SDS011;63651;55.728;38.022;2022-10-13T23:34:33;5.00;;;3.97;;
75071;SDS011;63651;55.728;38.022;2022-10-13T23:39:33;4.57;;;3.42;;
75071;SDS011;63651;55.728;38.022;2022-10-13T23:44:34;4.45;;;3.65;;
75071;SDS011;63651;55.728;38.022;2022-10-13T23:49:35;5.10;;;3.85;;
75071;SDS011;63651;55.728;38.022;2022-10-13T23:54:36;5.13;;;3.33;;
75071;SDS011;63651;55.728;38.022;2022-10-13T23:59:36;4.35;;;3.35;;
